sensor_id;sensor_type;location;lat;lon;timestamp;temperature;humidity
8248;DHT22;4164;49.844;8.830;2023-01-16T00:01:48;5.30;99.90
8248;DHT22;4164;49.844;8.830;2023-01-16T00:04:14;5.30;99.90
8248;DHT22;4164;49.844;8.830;2023-01-16T00:06:40;5.20;99.90
8248;DHT22;4164;49.844;8.830;2023-01-16T00:09:06;5.20;99.90
8248;DHT22;4164;49.844;8.830;2023-01-16T00:11:32;5.20;99.90
8248;DHT22;4164;49.844;8.830;2023-01-16T00:13:57;5.20;99.90
8248;DHT22;4164;49.844;8.830;2023-01-16T00:16:24;5.20;99.90
8248;DHT22;4164;49.844;8.830;2023-01-16T00:18:50;5.10;99.90
8248;DHT22;4164;49.844;8.830;2023-01-16T00:21:16;5.10;99.90
8248;DHT22;4164;49.844;8.830;2023-01-16T00:23:42;5.10;99.90
8248;DHT22;4164;49.844;8.830;2023-01-16T00:26:08;5.10;99.90
8248;DHT22;4164;49.844;8.830;2023-01-16T00:28:35;5.10;99.90
8248;DHT22;4164;49.844;8.830;2023-01-16T00:31:03;5.10;99.90
8248;DHT22;4164;49.844;8.830;2023-01-16T00:33:30;5.10;99.90
8248;DHT22;4164;49.844;8.830;2023-01-16T00:35:55;5.10;99.90
8248;DHT22;4164;49.844;8.830;2023-01-16T00:38:21;5.10;99.90
8248;DHT22;4164;49.844;8.830;2023-01-16T00:40:47;5.00;99.90
8248;DHT22;4164;49.844;8.830;2023-01-16T00:43:12;5.00;99.90
8248;DHT22;4164;49.844;8.830;2023-01-16T00:45:38;5.00;99.90
8248;DHT22;4164;49.844;8.830;2023-01-16T00:48:05;4.90;99.90
8248;DHT22;4164;49.844;8.830;2023-01-16T00:50:31;4.90;99.90
8248;DHT22;4164;49.844;8.830;2023-01-16T00:52:57;4.90;99.90
8248;DHT22;4164;49.844;8.830;2023-01-16T00:55:23;4.80;99.90
8248;DHT22;4164;49.844;8.830;2023-01-16T00:57:48;4.80;99.90
8248;DHT22;4164;49.844;8.830;2023-01-16T01:00:14;4.80;99.90
8248;DHT22;4164;49.844;8.830;2023-01-16T01:02:40;4.80;99.90
8248;DHT22;4164;49.844;8.830;2023-01-16T01:05:06;4.70;99.90
8248;DHT22;4164;49.844;8.830;2023-01-16T01:07:32;4.60;99.90
8248;DHT22;4164;49.844;8.830;2023-01-16T01:09:57;4.60;99.90
8248;DHT22;4164;49.844;8.830;2023-01-16T01:12:23;4.60;99.90
8248;DHT22;4164;49.844;8.830;2023-01-16T01:14:48;4.70;99.90
8248;DHT22;4164;49.844;8.830;2023-01-16T01:17:14;4.70;99.90
8248;DHT22;4164;49.844;8.830;2023-01-16T01:19:40;4.70;99.90
8248;DHT22;4164;49.844;8.830;2023-01-16T01:22:05;4.70;99.90
8248;DHT22;4164;49.844;8.830;2023-01-16T01:24:31;4.60;99.90
8248;DHT22;4164;49.844;8.830;2023-01-16T01:26:56;4.60;99.90
8248;DHT22;4164;49.844;8.830;2023-01-16T01:29:22;4.60;99.90
8248;DHT22;4164;49.844;8.830;2023-01-16T01:31:47;4.60;99.90
8248;DHT22;4164;49.844;8.830;2023-01-16T01:34:13;4.60;99.90
8248;DHT22;4164;49.844;8.830;2023-01-16T01:36:38;4.60;99.90
8248;DHT22;4164;49.844;8.830;2023-01-16T01:39:04;4.60;99.90
8248;DHT22;4164;49.844;8.830;2023-01-16T01:41:29;4.60;99.90
8248;DHT22;4164;49.844;8.830;2023-01-16T01:43:55;4.60;99.90
8248;DHT22;4164;49.844;8.830;2023-01-16T01:46:27;4.60;99.90
8248;DHT22;4164;49.844;8.830;2023-01-16T01:49:10;4.70;99.90
8248;DHT22;4164;49.844;8.830;2023-01-16T01:51:40;4.70;99.90
8248;DHT22;4164;49.844;8.830;2023-01-16T01:54:17;4.80;99.90
8248;DHT22;4164;49.844;8.830;2023-01-16T01:56:55;4.80;99.90
8248;DHT22;4164;49.844;8.830;2023-01-16T01:59:27;4.80;99.90
8248;DHT22;4164;49.844;8.830;2023-01-16T02:01:54;4.80;99.90
8248;DHT22;4164;49.844;8.830;2023-01-16T02:04:24;4.80;99.90
8248;DHT22;4164;49.844;8.830;2023-01-16T02:06:59;4.80;99.90
8248;DHT22;4164;49.844;8.830;2023-01-16T02:09:26;4.80;99.90
8248;DHT22;4164;49.844;8.830;2023-01-16T02:11:58;4.80;99.90
8248;DHT22;4164;49.844;8.830;2023-01-16T02:14:27;4.70;99.90
8248;DHT22;4164;49.844;8.830;2023-01-16T02:17:03;4.70;99.90
8248;DHT22;4164;49.844;8.830;2023-01-16T02:28:09;4.70;99.90
8248;DHT22;4164;49.844;8.830;2023-01-16T02:31:03;4.80;99.90
8248;DHT22;4164;49.844;8.830;2023-01-16T02:33:51;4.90;99.90
8248;DHT22;4164;49.844;8.830;2023-01-16T02:39:37;5.00;99.90
8248;DHT22;4164;49.844;8.830;2023-01-16T02:42:08;5.10;99.90
8248;DHT22;4164;49.844;8.830;2023-01-16T02:47:22;5.00;99.90
8248;DHT22;4164;49.844;8.830;2023-01-16T02:50:18;4.90;99.90
8248;DHT22;4164;49.844;8.830;2023-01-16T02:55:39;4.90;99.90
8248;DHT22;4164;49.844;8.830;2023-01-16T02:58:06;4.80;99.90
8248;DHT22;4164;49.844;8.830;2023-01-16T03:00:34;4.80;99.90
8248;DHT22;4164;49.844;8.830;2023-01-16T03:03:00;4.80;99.90
8248;DHT22;4164;49.844;8.830;2023-01-16T03:05:32;4.80;99.90
8248;DHT22;4164;49.844;8.830;2023-01-16T03:08:10;4.80;99.90
8248;DHT22;4164;49.844;8.830;2023-01-16T03:11:09;4.70;99.90
8248;DHT22;4164;49.844;8.830;2023-01-16T03:13:55;4.70;99.90
8248;DHT22;4164;49.844;8.830;2023-01-16T03:19:35;4.70;99.90
8248;DHT22;4164;49.844;8.830;2023-01-16T03:22:17;4.60;99.90
8248;DHT22;4164;49.844;8.830;2023-01-16T03:30:36;5.00;99.90
8248;DHT22;4164;49.844;8.830;2023-01-16T03:33:08;5.10;99.90
8248;DHT22;4164;49.844;8.830;2023-01-16T03:38:10;5.20;99.90
8248;DHT22;4164;49.844;8.830;2023-01-16T03:40:46;5.20;99.90
8248;DHT22;4164;49.844;8.830;2023-01-16T03:43:27;5.30;99.90
8248;DHT22;4164;49.844;8.830;2023-01-16T03:46:00;5.30;99.90
8248;DHT22;4164;49.844;8.830;2023-01-16T03:48:53;5.40;99.90
8248;DHT22;4164;49.844;8.830;2023-01-16T03:51:23;5.30;99.90
8248;DHT22;4164;49.844;8.830;2023-01-16T03:56:36;5.30;99.90
8248;DHT22;4164;49.844;8.830;2023-01-16T03:59:02;5.30;99.90
8248;DHT22;4164;49.844;8.830;2023-01-16T04:01:49;5.40;99.90
8248;DHT22;4164;49.844;8.830;2023-01-16T04:04:44;5.40;99.90
8248;DHT22;4164;49.844;8.830;2023-01-16T04:07:20;5.40;99.90
8248;DHT22;4164;49.844;8.830;2023-01-16T04:09:57;5.30;99.90
8248;DHT22;4164;49.844;8.830;2023-01-16T04:12:28;5.20;99.90
8248;DHT22;4164;49.844;8.830;2023-01-16T04:14:59;5.10;99.90
8248;DHT22;4164;49.844;8.830;2023-01-16T04:17:26;5.10;99.90
8248;DHT22;4164;49.844;8.830;2023-01-16T04:19:52;5.10;99.90
8248;DHT22;4164;49.844;8.830;2023-01-16T04:22:24;5.00;99.90
8248;DHT22;4164;49.844;8.830;2023-01-16T04:24:51;5.00;99.90
8248;DHT22;4164;49.844;8.830;2023-01-16T04:27:18;5.00;99.90
8248;DHT22;4164;49.844;8.830;2023-01-16T04:29:44;4.90;99.90
8248;DHT22;4164;49.844;8.830;2023-01-16T04:32:10;4.90;99.90
8248;DHT22;4164;49.844;8.830;2023-01-16T04:34:35;4.90;99.90
8248;DHT22;4164;49.844;8.830;2023-01-16T04:37:01;4.80;99.90
8248;DHT22;4164;49.844;8.830;2023-01-16T04:39:26;4.80;99.90
8248;DHT22;4164;49.844;8.830;2023-01-16T04:41:52;4.90;99.90
8248;DHT22;4164;49.844;8.830;2023-01-16T04:44:20;4.90;99.90
8248;DHT22;4164;49.844;8.830;2023-01-16T04:46:46;4.90;99.90
8248;DHT22;4164;49.844;8.830;2023-01-16T04:49:12;4.90;99.90
8248;DHT22;4164;49.844;8.830;2023-01-16T04:51:37;4.90;99.90
8248;DHT22;4164;49.844;8.830;2023-01-16T04:54:05;5.00;99.90
8248;DHT22;4164;49.844;8.830;2023-01-16T04:56:32;5.10;99.90
8248;DHT22;4164;49.844;8.830;2023-01-16T04:58:57;5.20;99.90
8248;DHT22;4164;49.844;8.830;2023-01-16T05:01:23;5.20;99.90
8248;DHT22;4164;49.844;8.830;2023-01-16T05:03:49;5.30;99.90
8248;DHT22;4164;49.844;8.830;2023-01-16T05:06:15;5.30;99.90
8248;DHT22;4164;49.844;8.830;2023-01-16T05:08:41;5.30;99.90
8248;DHT22;4164;49.844;8.830;2023-01-16T05:11:07;5.20;99.90
8248;DHT22;4164;49.844;8.830;2023-01-16T05:13:32;5.20;99.90
8248;DHT22;4164;49.844;8.830;2023-01-16T05:15:58;5.20;99.90
8248;DHT22;4164;49.844;8.830;2023-01-16T05:18:24;5.20;99.90
8248;DHT22;4164;49.844;8.830;2023-01-16T05:20:50;5.20;99.90
8248;DHT22;4164;49.844;8.830;2023-01-16T05:23:15;5.20;99.90
8248;DHT22;4164;49.844;8.830;2023-01-16T05:25:41;5.20;99.90
8248;DHT22;4164;49.844;8.830;2023-01-16T05:28:07;5.20;99.90
8248;DHT22;4164;49.844;8.830;2023-01-16T05:30:33;5.10;99.90
8248;DHT22;4164;49.844;8.830;2023-01-16T05:32:59;5.00;99.90
8248;DHT22;4164;49.844;8.830;2023-01-16T05:35:26;4.90;99.90
8248;DHT22;4164;49.844;8.830;2023-01-16T05:37:52;4.80;99.90
8248;DHT22;4164;49.844;8.830;2023-01-16T05:40:17;4.70;99.90
8248;DHT22;4164;49.844;8.830;2023-01-16T05:42:43;4.60;99.90
8248;DHT22;4164;49.844;8.830;2023-01-16T05:45:10;4.60;99.90
8248;DHT22;4164;49.844;8.830;2023-01-16T05:47:36;4.60;99.90
8248;DHT22;4164;49.844;8.830;2023-01-16T05:50:02;4.50;99.90
8248;DHT22;4164;49.844;8.830;2023-01-16T05:52:28;4.50;99.90
8248;DHT22;4164;49.844;8.830;2023-01-16T05:54:54;4.50;99.90
8248;DHT22;4164;49.844;8.830;2023-01-16T05:57:20;4.50;99.90
8248;DHT22;4164;49.844;8.830;2023-01-16T05:59:50;4.50;99.90
8248;DHT22;4164;49.844;8.830;2023-01-16T06:02:16;4.50;99.90
8248;DHT22;4164;49.844;8.830;2023-01-16T06:04:42;4.50;99.90
8248;DHT22;4164;49.844;8.830;2023-01-16T06:07:08;4.40;99.90
8248;DHT22;4164;49.844;8.830;2023-01-16T06:09:33;4.40;99.90
8248;DHT22;4164;49.844;8.830;2023-01-16T06:11:59;4.40;99.90
8248;DHT22;4164;49.844;8.830;2023-01-16T06:14:24;4.30;99.90
8248;DHT22;4164;49.844;8.830;2023-01-16T06:16:49;4.30;99.90
8248;DHT22;4164;49.844;8.830;2023-01-16T06:19:15;4.30;99.90
8248;DHT22;4164;49.844;8.830;2023-01-16T06:21:41;4.20;99.90
8248;DHT22;4164;49.844;8.830;2023-01-16T06:24:06;4.20;99.90
8248;DHT22;4164;49.844;8.830;2023-01-16T06:26:32;4.20;99.90
8248;DHT22;4164;49.844;8.830;2023-01-16T06:28:58;4.20;99.90
8248;DHT22;4164;49.844;8.830;2023-01-16T06:31:23;4.10;99.90
8248;DHT22;4164;49.844;8.830;2023-01-16T06:33:49;4.10;99.90
8248;DHT22;4164;49.844;8.830;2023-01-16T06:36:15;4.10;99.90
8248;DHT22;4164;49.844;8.830;2023-01-16T06:38:41;4.10;99.90
8248;DHT22;4164;49.844;8.830;2023-01-16T06:41:06;4.10;99.90
8248;DHT22;4164;49.844;8.830;2023-01-16T06:43:32;4.10;99.90
8248;DHT22;4164;49.844;8.830;2023-01-16T06:45:57;4.10;99.90
8248;DHT22;4164;49.844;8.830;2023-01-16T06:48:23;4.10;99.90
8248;DHT22;4164;49.844;8.830;2023-01-16T06:50:49;4.20;99.90
8248;DHT22;4164;49.844;8.830;2023-01-16T06:53:15;4.20;99.90
8248;DHT22;4164;49.844;8.830;2023-01-16T06:55:41;4.30;99.90
8248;DHT22;4164;49.844;8.830;2023-01-16T06:58:08;4.20;99.90
8248;DHT22;4164;49.844;8.830;2023-01-16T07:00:34;4.20;99.90
8248;DHT22;4164;49.844;8.830;2023-01-16T07:03:00;4.20;99.90
8248;DHT22;4164;49.844;8.830;2023-01-16T07:05:27;4.30;99.90
8248;DHT22;4164;49.844;8.830;2023-01-16T07:07:53;4.30;99.90
8248;DHT22;4164;49.844;8.830;2023-01-16T07:10:18;4.30;99.90
8248;DHT22;4164;49.844;8.830;2023-01-16T07:12:48;4.40;99.90
8248;DHT22;4164;49.844;8.830;2023-01-16T07:15:13;4.50;99.90
8248;DHT22;4164;49.844;8.830;2023-01-16T07:17:57;4.40;99.90
8248;DHT22;4164;49.844;8.830;2023-01-16T07:20:45;4.50;99.90
8248;DHT22;4164;49.844;8.830;2023-01-16T07:23:33;4.40;99.90
8248;DHT22;4164;49.844;8.830;2023-01-16T07:26:02;4.50;99.90
8248;DHT22;4164;49.844;8.830;2023-01-16T07:28:29;4.50;99.90
8248;DHT22;4164;49.844;8.830;2023-01-16T07:30:56;4.50;99.90
8248;DHT22;4164;49.844;8.830;2023-01-16T07:33:23;4.50;99.90
8248;DHT22;4164;49.844;8.830;2023-01-16T07:35:48;4.60;99.90
8248;DHT22;4164;49.844;8.830;2023-01-16T07:38:14;4.60;99.90
8248;DHT22;4164;49.844;8.830;2023-01-16T07:40:39;4.50;99.90
8248;DHT22;4164;49.844;8.830;2023-01-16T07:43:05;4.50;99.90
8248;DHT22;4164;49.844;8.830;2023-01-16T07:45:30;4.50;99.90
8248;DHT22;4164;49.844;8.830;2023-01-16T07:47:56;4.50;99.90
8248;DHT22;4164;49.844;8.830;2023-01-16T07:50:22;4.50;99.90
8248;DHT22;4164;49.844;8.830;2023-01-16T07:52:48;4.50;99.90
8248;DHT22;4164;49.844;8.830;2023-01-16T07:55:13;4.50;99.90
8248;DHT22;4164;49.844;8.830;2023-01-16T07:57:39;4.50;99.90
8248;DHT22;4164;49.844;8.830;2023-01-16T08:00:07;4.40;99.90
8248;DHT22;4164;49.844;8.830;2023-01-16T08:02:33;4.50;99.90
8248;DHT22;4164;49.844;8.830;2023-01-16T08:04:58;4.50;99.90
8248;DHT22;4164;49.844;8.830;2023-01-16T08:07:24;4.50;99.90
8248;DHT22;4164;49.844;8.830;2023-01-16T08:09:49;4.50;99.90
8248;DHT22;4164;49.844;8.830;2023-01-16T08:12:15;4.50;99.90
8248;DHT22;4164;49.844;8.830;2023-01-16T08:14:40;4.50;99.90
8248;DHT22;4164;49.844;8.830;2023-01-16T08:17:06;4.60;99.90
8248;DHT22;4164;49.844;8.830;2023-01-16T08:19:31;4.60;99.90
8248;DHT22;4164;49.844;8.830;2023-01-16T08:21:57;4.60;99.90
8248;DHT22;4164;49.844;8.830;2023-01-16T08:24:22;4.50;99.90
8248;DHT22;4164;49.844;8.830;2023-01-16T08:26:51;4.60;99.90
8248;DHT22;4164;49.844;8.830;2023-01-16T08:29:16;4.60;99.90
8248;DHT22;4164;49.844;8.830;2023-01-16T08:31:42;4.60;99.90
8248;DHT22;4164;49.844;8.830;2023-01-16T08:34:07;4.70;99.90
8248;DHT22;4164;49.844;8.830;2023-01-16T08:36:33;4.60;99.90
8248;DHT22;4164;49.844;8.830;2023-01-16T08:38:59;4.70;99.90
8248;DHT22;4164;49.844;8.830;2023-01-16T08:41:25;4.80;99.90
8248;DHT22;4164;49.844;8.830;2023-01-16T08:44:09;4.80;99.90
8248;DHT22;4164;49.844;8.830;2023-01-16T08:47:04;4.90;99.90
8248;DHT22;4164;49.844;8.830;2023-01-16T08:49:49;5.20;99.90
8248;DHT22;4164;49.844;8.830;2023-01-16T08:52:34;5.30;99.90
8248;DHT22;4164;49.844;8.830;2023-01-16T08:55:02;5.40;99.90
8248;DHT22;4164;49.844;8.830;2023-01-16T08:57:28;5.50;99.90
8248;DHT22;4164;49.844;8.830;2023-01-16T08:59:55;5.50;99.90
8248;DHT22;4164;49.844;8.830;2023-01-16T09:02:21;5.60;99.90
8248;DHT22;4164;49.844;8.830;2023-01-16T09:04:47;5.50;99.90
8248;DHT22;4164;49.844;8.830;2023-01-16T09:07:13;5.60;99.90
8248;DHT22;4164;49.844;8.830;2023-01-16T09:09:39;5.60;99.90
8248;DHT22;4164;49.844;8.830;2023-01-16T09:12:09;5.60;99.90
8248;DHT22;4164;49.844;8.830;2023-01-16T09:14:53;5.70;99.90
8248;DHT22;4164;49.844;8.830;2023-01-16T09:17:20;5.50;99.90
8248;DHT22;4164;49.844;8.830;2023-01-16T09:19:46;5.50;99.90
8248;DHT22;4164;49.844;8.830;2023-01-16T09:22:11;5.50;99.90
8248;DHT22;4164;49.844;8.830;2023-01-16T09:24:37;5.50;99.90
8248;DHT22;4164;49.844;8.830;2023-01-16T09:27:04;5.40;99.90
8248;DHT22;4164;49.844;8.830;2023-01-16T09:29:30;5.40;99.90
8248;DHT22;4164;49.844;8.830;2023-01-16T09:31:57;5.40;99.90
8248;DHT22;4164;49.844;8.830;2023-01-16T09:34:23;5.40;99.90
8248;DHT22;4164;49.844;8.830;2023-01-16T09:36:48;5.30;99.90
8248;DHT22;4164;49.844;8.830;2023-01-16T09:39:14;5.30;99.90
8248;DHT22;4164;49.844;8.830;2023-01-16T09:41:52;5.30;99.90
8248;DHT22;4164;49.844;8.830;2023-01-16T09:44:37;5.30;99.90
8248;DHT22;4164;49.844;8.830;2023-01-16T09:47:04;5.30;99.90
8248;DHT22;4164;49.844;8.830;2023-01-16T09:52:09;5.20;99.90
8248;DHT22;4164;49.844;8.830;2023-01-16T09:54:58;5.20;99.90
8248;DHT22;4164;49.844;8.830;2023-01-16T09:57:46;5.20;99.90
8248;DHT22;4164;49.844;8.830;2023-01-16T10:00:34;5.00;99.90
8248;DHT22;4164;49.844;8.830;2023-01-16T10:03:00;5.10;99.90
8248;DHT22;4164;49.844;8.830;2023-01-16T10:05:34;5.00;99.90
8248;DHT22;4164;49.844;8.830;2023-01-16T10:08:25;5.00;99.90
8248;DHT22;4164;49.844;8.830;2023-01-16T10:10:58;4.90;99.90
8248;DHT22;4164;49.844;8.830;2023-01-16T10:16:18;4.90;99.90
8248;DHT22;4164;49.844;8.830;2023-01-16T10:19:12;4.80;99.90
8248;DHT22;4164;49.844;8.830;2023-01-16T10:22:06;4.70;99.90
8248;DHT22;4164;49.844;8.830;2023-01-16T10:25:26;4.60;99.90
8248;DHT22;4164;49.844;8.830;2023-01-16T10:28:04;4.60;99.90
8248;DHT22;4164;49.844;8.830;2023-01-16T10:30:39;4.50;99.90
8248;DHT22;4164;49.844;8.830;2023-01-16T10:35:51;4.50;99.90
8248;DHT22;4164;49.844;8.830;2023-01-16T10:38:26;4.50;99.90
8248;DHT22;4164;49.844;8.830;2023-01-16T10:41:18;4.40;99.90
8248;DHT22;4164;49.844;8.830;2023-01-16T10:44:32;4.30;99.90
8248;DHT22;4164;49.844;8.830;2023-01-16T10:47:20;4.20;99.90
8248;DHT22;4164;49.844;8.830;2023-01-16T10:50:06;4.30;99.90
8248;DHT22;4164;49.844;8.830;2023-01-16T10:52:32;4.20;99.90
8248;DHT22;4164;49.844;8.830;2023-01-16T10:54:59;4.20;99.90
8248;DHT22;4164;49.844;8.830;2023-01-16T10:57:25;4.30;99.90
8248;DHT22;4164;49.844;8.830;2023-01-16T10:59:54;4.30;99.90
8248;DHT22;4164;49.844;8.830;2023-01-16T11:02:32;4.30;99.90
8248;DHT22;4164;49.844;8.830;2023-01-16T11:04:59;4.20;99.90
8248;DHT22;4164;49.844;8.830;2023-01-16T11:07:28;4.20;99.90
8248;DHT22;4164;49.844;8.830;2023-01-16T11:09:54;4.40;99.90
8248;DHT22;4164;49.844;8.830;2023-01-16T11:12:29;4.40;99.90
8248;DHT22;4164;49.844;8.830;2023-01-16T11:15:20;4.40;99.90
8248;DHT22;4164;49.844;8.830;2023-01-16T11:18:26;4.40;99.90
8248;DHT22;4164;49.844;8.830;2023-01-16T11:21:00;4.50;99.90
8248;DHT22;4164;49.844;8.830;2023-01-16T11:23:34;4.60;99.90
8248;DHT22;4164;49.844;8.830;2023-01-16T11:26:01;4.60;99.90
8248;DHT22;4164;49.844;8.830;2023-01-16T11:28:29;4.60;99.90
8248;DHT22;4164;49.844;8.830;2023-01-16T11:30:59;4.50;99.90
8248;DHT22;4164;49.844;8.830;2023-01-16T11:33:32;4.60;99.90
8248;DHT22;4164;49.844;8.830;2023-01-16T11:36:00;4.60;99.90
8248;DHT22;4164;49.844;8.830;2023-01-16T11:38:28;4.70;99.90
8248;DHT22;4164;49.844;8.830;2023-01-16T11:40:59;4.70;99.90
8248;DHT22;4164;49.844;8.830;2023-01-16T11:43:27;4.60;99.90
8248;DHT22;4164;49.844;8.830;2023-01-16T11:48:55;4.80;99.90
8248;DHT22;4164;49.844;8.830;2023-01-16T11:51:28;4.90;99.90
8248;DHT22;4164;49.844;8.830;2023-01-16T11:53:55;4.80;99.90
8248;DHT22;4164;49.844;8.830;2023-01-16T12:04:29;5.10;99.90
8248;DHT22;4164;49.844;8.830;2023-01-16T12:07:18;5.10;99.90
8248;DHT22;4164;49.844;8.830;2023-01-16T12:09:52;5.20;99.90
8248;DHT22;4164;49.844;8.830;2023-01-16T12:12:38;5.40;99.90
8248;DHT22;4164;49.844;8.830;2023-01-16T12:15:44;5.70;99.90
8248;DHT22;4164;49.844;8.830;2023-01-16T12:18:39;6.10;99.90
8248;DHT22;4164;49.844;8.830;2023-01-16T12:26:28;6.20;99.90
8248;DHT22;4164;49.844;8.830;2023-01-16T12:29:23;6.10;99.90
8248;DHT22;4164;49.844;8.830;2023-01-16T12:35:13;6.30;99.90
8248;DHT22;4164;49.844;8.830;2023-01-16T12:38:04;7.00;99.90
8248;DHT22;4164;49.844;8.830;2023-01-16T12:45:58;7.80;99.90
8248;DHT22;4164;49.844;8.830;2023-01-16T12:57:29;8.40;99.90
8248;DHT22;4164;49.844;8.830;2023-01-16T13:00:08;8.80;99.90
8248;DHT22;4164;49.844;8.830;2023-01-16T13:02:43;9.50;99.90
8248;DHT22;4164;49.844;8.830;2023-01-16T13:05:23;10.40;99.90
8248;DHT22;4164;49.844;8.830;2023-01-16T13:07:55;11.10;99.90
8248;DHT22;4164;49.844;8.830;2023-01-16T13:10:27;11.10;99.90
8248;DHT22;4164;49.844;8.830;2023-01-16T13:13:15;10.80;99.90
8248;DHT22;4164;49.844;8.830;2023-01-16T13:18:37;9.70;99.90
8248;DHT22;4164;49.844;8.830;2023-01-16T13:21:07;9.70;99.90
8248;DHT22;4164;49.844;8.830;2023-01-16T13:23:41;9.40;99.90
8248;DHT22;4164;49.844;8.830;2023-01-16T13:26:10;8.40;99.90
8248;DHT22;4164;49.844;8.830;2023-01-16T13:34:24;7.90;99.90
8248;DHT22;4164;49.844;8.830;2023-01-16T13:39:57;7.90;99.90
8248;DHT22;4164;49.844;8.830;2023-01-16T13:42:25;7.80;99.90
8248;DHT22;4164;49.844;8.830;2023-01-16T13:45:01;7.90;99.90
8248;DHT22;4164;49.844;8.830;2023-01-16T13:47:46;7.70;99.90
8248;DHT22;4164;49.844;8.830;2023-01-16T13:52:44;7.20;99.90
8248;DHT22;4164;49.844;8.830;2023-01-16T13:55:41;7.20;99.90
8248;DHT22;4164;49.844;8.830;2023-01-16T13:58:22;7.00;99.90
8248;DHT22;4164;49.844;8.830;2023-01-16T14:01:02;7.00;99.90
8248;DHT22;4164;49.844;8.830;2023-01-16T14:03:31;7.00;99.90
8248;DHT22;4164;49.844;8.830;2023-01-16T14:06:16;6.90;99.90
8248;DHT22;4164;49.844;8.830;2023-01-16T14:12:01;6.90;99.90
8248;DHT22;4164;49.844;8.830;2023-01-16T14:14:31;6.80;99.90
8248;DHT22;4164;49.844;8.830;2023-01-16T14:17:18;6.60;99.90
8248;DHT22;4164;49.844;8.830;2023-01-16T14:20:01;6.50;99.90
8248;DHT22;4164;49.844;8.830;2023-01-16T14:22:41;6.40;99.90
8248;DHT22;4164;49.844;8.830;2023-01-16T14:25:27;6.50;99.90
8248;DHT22;4164;49.844;8.830;2023-01-16T14:27:54;6.80;99.90
8248;DHT22;4164;49.844;8.830;2023-01-16T14:30:23;6.90;99.90
8248;DHT22;4164;49.844;8.830;2023-01-16T14:32:56;6.70;99.90
8248;DHT22;4164;49.844;8.830;2023-01-16T14:36:10;6.50;99.90
8248;DHT22;4164;49.844;8.830;2023-01-16T14:38:20;6.40;99.90
8248;DHT22;4164;49.844;8.830;2023-01-16T14:40:50;6.30;99.90
8248;DHT22;4164;49.844;8.830;2023-01-16T14:43:36;6.40;99.90
8248;DHT22;4164;49.844;8.830;2023-01-16T14:46:27;6.40;99.90
8248;DHT22;4164;49.844;8.830;2023-01-16T14:49:39;6.40;99.90
8248;DHT22;4164;49.844;8.830;2023-01-16T14:55:28;6.40;99.90
8248;DHT22;4164;49.844;8.830;2023-01-16T14:57:56;6.40;99.90
8248;DHT22;4164;49.844;8.830;2023-01-16T15:00:23;6.40;99.90
8248;DHT22;4164;49.844;8.830;2023-01-16T15:03:00;6.30;99.90
8248;DHT22;4164;49.844;8.830;2023-01-16T15:05:43;6.30;99.90
8248;DHT22;4164;49.844;8.830;2023-01-16T15:10:55;6.30;99.90
8248;DHT22;4164;49.844;8.830;2023-01-16T15:13:30;6.10;99.90
8248;DHT22;4164;49.844;8.830;2023-01-16T15:16:23;6.10;99.90
8248;DHT22;4164;49.844;8.830;2023-01-16T15:19:16;6.20;99.90
8248;DHT22;4164;49.844;8.830;2023-01-16T15:22:00;6.20;99.90
8248;DHT22;4164;49.844;8.830;2023-01-16T15:24:26;6.20;99.90
8248;DHT22;4164;49.844;8.830;2023-01-16T15:27:12;6.30;99.90
8248;DHT22;4164;49.844;8.830;2023-01-16T15:32:18;6.20;99.90
8248;DHT22;4164;49.844;8.830;2023-01-16T15:34:46;6.30;99.90
8248;DHT22;4164;49.844;8.830;2023-01-16T15:37:23;6.30;99.90
8248;DHT22;4164;49.844;8.830;2023-01-16T15:39:49;6.20;99.90
8248;DHT22;4164;49.844;8.830;2023-01-16T15:42:30;6.20;99.90
8248;DHT22;4164;49.844;8.830;2023-01-16T15:45:17;6.10;99.90
8248;DHT22;4164;49.844;8.830;2023-01-16T15:48:26;5.90;99.90
8248;DHT22;4164;49.844;8.830;2023-01-16T15:51:07;5.80;99.90
8248;DHT22;4164;49.844;8.830;2023-01-16T15:53:39;5.60;99.90
8248;DHT22;4164;49.844;8.830;2023-01-16T15:58:40;5.40;99.90
8248;DHT22;4164;49.844;8.830;2023-01-16T16:01:06;5.30;99.90
8248;DHT22;4164;49.844;8.830;2023-01-16T16:03:43;5.30;99.90
8248;DHT22;4164;49.844;8.830;2023-01-16T16:06:12;5.30;99.90
8248;DHT22;4164;49.844;8.830;2023-01-16T16:08:45;5.20;99.90
8248;DHT22;4164;49.844;8.830;2023-01-16T16:11:31;5.20;99.90
8248;DHT22;4164;49.844;8.830;2023-01-16T16:14:29;5.20;99.90
8248;DHT22;4164;49.844;8.830;2023-01-16T16:17:23;5.20;99.90
8248;DHT22;4164;49.844;8.830;2023-01-16T16:20:28;5.30;99.90
8248;DHT22;4164;49.844;8.830;2023-01-16T16:23:02;5.30;99.90
8248;DHT22;4164;49.844;8.830;2023-01-16T16:25:32;5.30;99.90
8248;DHT22;4164;49.844;8.830;2023-01-16T16:27:59;5.30;99.90
8248;DHT22;4164;49.844;8.830;2023-01-16T16:30:26;5.40;99.90
8248;DHT22;4164;49.844;8.830;2023-01-16T16:32:53;5.40;99.90
8248;DHT22;4164;49.844;8.830;2023-01-16T16:35:37;5.30;99.90
8248;DHT22;4164;49.844;8.830;2023-01-16T16:38:02;5.20;99.90
8248;DHT22;4164;49.844;8.830;2023-01-16T16:40:28;5.20;99.90
8248;DHT22;4164;49.844;8.830;2023-01-16T16:42:56;5.10;99.90
8248;DHT22;4164;49.844;8.830;2023-01-16T16:45:27;5.00;99.90
8248;DHT22;4164;49.844;8.830;2023-01-16T16:48:26;5.00;99.90
8248;DHT22;4164;49.844;8.830;2023-01-16T16:51:19;4.90;99.90
8248;DHT22;4164;49.844;8.830;2023-01-16T16:53:46;4.90;99.90
8248;DHT22;4164;49.844;8.830;2023-01-16T16:56:14;4.90;99.90
8248;DHT22;4164;49.844;8.830;2023-01-16T16:58:45;4.90;99.90
8248;DHT22;4164;49.844;8.830;2023-01-16T17:01:16;4.90;99.90
8248;DHT22;4164;49.844;8.830;2023-01-16T17:03:44;4.80;99.90
8248;DHT22;4164;49.844;8.830;2023-01-16T17:06:15;4.90;99.90
8248;DHT22;4164;49.844;8.830;2023-01-16T17:08:40;4.90;99.90
8248;DHT22;4164;49.844;8.830;2023-01-16T17:11:12;4.90;99.90
8248;DHT22;4164;49.844;8.830;2023-01-16T17:13:38;4.90;99.90
8248;DHT22;4164;49.844;8.830;2023-01-16T17:16:04;4.90;99.90
8248;DHT22;4164;49.844;8.830;2023-01-16T17:18:31;4.90;99.90
8248;DHT22;4164;49.844;8.830;2023-01-16T17:20:57;4.80;99.90
8248;DHT22;4164;49.844;8.830;2023-01-16T17:23:23;4.80;99.90
8248;DHT22;4164;49.844;8.830;2023-01-16T17:25:51;4.80;99.90
8248;DHT22;4164;49.844;8.830;2023-01-16T17:28:16;4.80;99.90
8248;DHT22;4164;49.844;8.830;2023-01-16T17:30:42;4.80;99.90
8248;DHT22;4164;49.844;8.830;2023-01-16T17:33:18;4.80;99.90
8248;DHT22;4164;49.844;8.830;2023-01-16T17:35:46;4.70;99.90
8248;DHT22;4164;49.844;8.830;2023-01-16T17:38:18;4.70;99.90
8248;DHT22;4164;49.844;8.830;2023-01-16T17:40:44;4.70;99.90
8248;DHT22;4164;49.844;8.830;2023-01-16T17:43:15;4.70;99.90
8248;DHT22;4164;49.844;8.830;2023-01-16T17:46:02;4.80;99.90
8248;DHT22;4164;49.844;8.830;2023-01-16T17:48:29;4.70;99.90
8248;DHT22;4164;49.844;8.830;2023-01-16T17:50:56;4.70;99.90
8248;DHT22;4164;49.844;8.830;2023-01-16T17:53:25;4.70;99.90
8248;DHT22;4164;49.844;8.830;2023-01-16T17:55:53;4.70;99.90
8248;DHT22;4164;49.844;8.830;2023-01-16T18:00:59;4.70;99.90
8248;DHT22;4164;49.844;8.830;2023-01-16T18:03:25;4.70;99.90
8248;DHT22;4164;49.844;8.830;2023-01-16T18:05:50;4.70;99.90
8248;DHT22;4164;49.844;8.830;2023-01-16T18:08:17;4.70;99.90
8248;DHT22;4164;49.844;8.830;2023-01-16T18:10:42;4.80;99.90
8248;DHT22;4164;49.844;8.830;2023-01-16T18:13:09;4.80;99.90
8248;DHT22;4164;49.844;8.830;2023-01-16T18:15:54;4.80;99.90
8248;DHT22;4164;49.844;8.830;2023-01-16T18:18:38;4.80;99.90
8248;DHT22;4164;49.844;8.830;2023-01-16T18:21:09;4.80;99.90
8248;DHT22;4164;49.844;8.830;2023-01-16T18:23:53;4.80;99.90
8248;DHT22;4164;49.844;8.830;2023-01-16T18:26:19;4.80;99.90
8248;DHT22;4164;49.844;8.830;2023-01-16T18:28:45;4.90;99.90
8248;DHT22;4164;49.844;8.830;2023-01-16T18:31:12;4.90;99.90
8248;DHT22;4164;49.844;8.830;2023-01-16T18:33:37;4.90;99.90